sensor_id;sensor_type;location;lat;lon;timestamp;P1;durP1;ratioP1;P2;durP2;ratioP2
13067;SDS011;6600;51.362;6.686;2023-02-22T00:00:14;16.00;;;6.90;;
13067;SDS011;6600;51.362;6.686;2023-02-22T00:02:46;11.50;;;5.07;;
13067;SDS011;6600;51.362;6.686;2023-02-22T00:05:16;19.73;;;7.07;;
13067;SDS011;6600;51.362;6.686;2023-02-22T00:07:44;20.97;;;8.03;;
13067;SDS011;6600;51.362;6.686;2023-02-22T00:10:12;14.07;;;7.83;;
13067;SDS011;6600;51.362;6.686;2023-02-22T00:12:41;20.43;;;7.63;;
13067;SDS011;6600;51.362;6.686;2023-02-22T00:15:07;17.80;;;6.43;;
13067;SDS011;6600;51.362;6.686;2023-02-22T00:17:34;17.93;;;7.43;;
13067;SDS011;6600;51.362;6.686;2023-02-22T00:20:00;14.73;;;6.37;;
13067;SDS011;6600;51.362;6.686;2023-02-22T00:22:26;17.47;;;7.17;;
13067;SDS011;6600;51.362;6.686;2023-02-22T00:24:51;21.13;;;9.07;;
13067;SDS011;6600;51.362;6.686;2023-02-22T00:27:16;16.70;;;7.53;;
13067;SDS011;6600;51.362;6.686;2023-02-22T00:29:45;14.87;;;5.57;;
13067;SDS011;6600;51.362;6.686;2023-02-22T00:32:10;16.90;;;6.97;;
13067;SDS011;6600;51.362;6.686;2023-02-22T00:34:36;13.80;;;5.57;;
13067;SDS011;6600;51.362;6.686;2023-02-22T00:37:02;13.23;;;7.33;;
13067;SDS011;6600;51.362;6.686;2023-02-22T00:39:28;13.67;;;6.70;;
13067;SDS011;6600;51.362;6.686;2023-02-22T00:41:56;14.67;;;6.23;;
13067;SDS011;6600;51.362;6.686;2023-02-22T00:44:22;19.73;;;5.83;;
13067;SDS011;6600;51.362;6.686;2023-02-22T00:46:47;23.93;;;6.83;;
13067;SDS011;6600;51.362;6.686;2023-02-22T00:49:13;14.20;;;5.90;;
13067;SDS011;6600;51.362;6.686;2023-02-22T00:51:39;16.83;;;6.07;;
13067;SDS011;6600;51.362;6.686;2023-02-22T00:54:05;14.07;;;6.93;;
13067;SDS011;6600;51.362;6.686;2023-02-22T00:56:31;18.20;;;6.93;;
13067;SDS011;6600;51.362;6.686;2023-02-22T00:58:58;19.33;;;8.97;;
13067;SDS011;6600;51.362;6.686;2023-02-22T01:01:25;21.57;;;8.07;;
13067;SDS011;6600;51.362;6.686;2023-02-22T01:03:53;17.57;;;7.00;;
13067;SDS011;6600;51.362;6.686;2023-02-22T01:06:18;23.30;;;8.10;;
13067;SDS011;6600;51.362;6.686;2023-02-22T01:08:44;19.07;;;6.80;;
13067;SDS011;6600;51.362;6.686;2023-02-22T01:11:11;16.83;;;6.50;;
13067;SDS011;6600;51.362;6.686;2023-02-22T01:13:39;22.77;;;7.17;;
13067;SDS011;6600;51.362;6.686;2023-02-22T01:16:05;20.33;;;6.87;;
13067;SDS011;6600;51.362;6.686;2023-02-22T01:18:32;16.00;;;6.90;;
13067;SDS011;6600;51.362;6.686;2023-02-22T01:20:59;24.03;;;7.37;;
13067;SDS011;6600;51.362;6.686;2023-02-22T01:23:25;18.43;;;7.03;;
13067;SDS011;6600;51.362;6.686;2023-02-22T01:25:51;15.37;;;6.43;;
13067;SDS011;6600;51.362;6.686;2023-02-22T01:28:16;18.23;;;8.43;;
13067;SDS011;6600;51.362;6.686;2023-02-22T01:30:42;21.77;;;7.00;;
13067;SDS011;6600;51.362;6.686;2023-02-22T01:33:07;19.07;;;9.37;;
13067;SDS011;6600;51.362;6.686;2023-02-22T01:35:34;26.03;;;7.57;;
13067;SDS011;6600;51.362;6.686;2023-02-22T01:38:00;18.80;;;8.27;;
13067;SDS011;6600;51.362;6.686;2023-02-22T01:40:33;23.20;;;9.13;;
13067;SDS011;6600;51.362;6.686;2023-02-22T01:43:03;22.23;;;7.10;;
13067;SDS011;6600;51.362;6.686;2023-02-22T01:45:43;20.97;;;7.20;;
13067;SDS011;6600;51.362;6.686;2023-02-22T01:51:00;20.93;;;8.63;;
13067;SDS011;6600;51.362;6.686;2023-02-22T01:53:35;17.63;;;7.87;;
13067;SDS011;6600;51.362;6.686;2023-02-22T01:56:14;11.23;;;6.73;;
13067;SDS011;6600;51.362;6.686;2023-02-22T01:58:42;19.83;;;7.40;;
13067;SDS011;6600;51.362;6.686;2023-02-22T02:01:15;16.40;;;8.17;;
13067;SDS011;6600;51.362;6.686;2023-02-22T02:03:42;27.33;;;9.50;;
13067;SDS011;6600;51.362;6.686;2023-02-22T02:06:11;19.20;;;7.30;;
13067;SDS011;6600;51.362;6.686;2023-02-22T02:11:17;26.20;;;8.93;;
13067;SDS011;6600;51.362;6.686;2023-02-22T02:13:48;18.63;;;6.30;;
13067;SDS011;6600;51.362;6.686;2023-02-22T02:16:15;15.67;;;6.70;;
13067;SDS011;6600;51.362;6.686;2023-02-22T02:18:41;22.60;;;5.43;;
13067;SDS011;6600;51.362;6.686;2023-02-22T02:31:59;17.70;;;7.13;;
13067;SDS011;6600;51.362;6.686;2023-02-22T02:34:57;17.73;;;6.30;;
13067;SDS011;6600;51.362;6.686;2023-02-22T02:40:30;11.23;;;4.97;;
13067;SDS011;6600;51.362;6.686;2023-02-22T02:48:31;13.03;;;4.97;;
13067;SDS011;6600;51.362;6.686;2023-02-22T02:51:00;11.60;;;4.03;;
13067;SDS011;6600;51.362;6.686;2023-02-22T02:53:34;13.57;;;4.30;;
13067;SDS011;6600;51.362;6.686;2023-02-22T02:56:06;11.13;;;5.47;;
13067;SDS011;6600;51.362;6.686;2023-02-22T02:58:31;10.60;;;6.00;;
13067;SDS011;6600;51.362;6.686;2023-02-22T03:00:58;8.47;;;4.57;;
13067;SDS011;6600;51.362;6.686;2023-02-22T03:09:23;8.70;;;4.70;;
13067;SDS011;6600;51.362;6.686;2023-02-22T03:15:25;11.37;;;4.00;;
13067;SDS011;6600;51.362;6.686;2023-02-22T03:20:14;8.63;;;3.53;;
13067;SDS011;6600;51.362;6.686;2023-02-22T03:25:51;11.60;;;4.83;;
13067;SDS011;6600;51.362;6.686;2023-02-22T03:28:22;14.03;;;5.87;;
13067;SDS011;6600;51.362;6.686;2023-02-22T03:30:52;11.67;;;4.87;;
13067;SDS011;6600;51.362;6.686;2023-02-22T03:33:23;8.50;;;4.83;;
13067;SDS011;6600;51.362;6.686;2023-02-22T03:36:00;8.63;;;4.03;;
13067;SDS011;6600;51.362;6.686;2023-02-22T03:38:30;13.77;;;3.93;;
13067;SDS011;6600;51.362;6.686;2023-02-22T03:40:58;9.30;;;4.67;;
13067;SDS011;6600;51.362;6.686;2023-02-22T03:43:30;7.80;;;4.80;;
13067;SDS011;6600;51.362;6.686;2023-02-22T03:46:00;12.70;;;4.63;;
13067;SDS011;6600;51.362;6.686;2023-02-22T03:51:24;8.17;;;4.67;;
13067;SDS011;6600;51.362;6.686;2023-02-22T03:53:50;10.00;;;3.60;;
13067;SDS011;6600;51.362;6.686;2023-02-22T03:56:21;6.80;;;5.03;;
13067;SDS011;6600;51.362;6.686;2023-02-22T03:58:50;11.93;;;3.57;;
13067;SDS011;6600;51.362;6.686;2023-02-22T04:01:16;8.67;;;4.57;;
13067;SDS011;6600;51.362;6.686;2023-02-22T04:03:43;10.50;;;5.33;;
13067;SDS011;6600;51.362;6.686;2023-02-22T04:06:09;10.67;;;3.70;;
13067;SDS011;6600;51.362;6.686;2023-02-22T04:08:35;11.07;;;4.73;;
13067;SDS011;6600;51.362;6.686;2023-02-22T04:11:00;9.97;;;3.50;;
13067;SDS011;6600;51.362;6.686;2023-02-22T04:13:26;15.10;;;5.00;;
13067;SDS011;6600;51.362;6.686;2023-02-22T04:15:51;6.93;;;4.07;;
13067;SDS011;6600;51.362;6.686;2023-02-22T04:18:17;8.50;;;4.13;;
13067;SDS011;6600;51.362;6.686;2023-02-22T04:20:42;11.80;;;3.93;;
13067;SDS011;6600;51.362;6.686;2023-02-22T04:23:08;9.30;;;4.07;;
13067;SDS011;6600;51.362;6.686;2023-02-22T04:25:34;6.57;;;3.70;;
13067;SDS011;6600;51.362;6.686;2023-02-22T04:28:00;9.27;;;3.60;;
13067;SDS011;6600;51.362;6.686;2023-02-22T04:30:25;10.30;;;3.77;;
13067;SDS011;6600;51.362;6.686;2023-02-22T04:32:53;7.07;;;3.70;;
13067;SDS011;6600;51.362;6.686;2023-02-22T04:35:18;7.73;;;3.63;;
13067;SDS011;6600;51.362;6.686;2023-02-22T04:37:44;6.53;;;4.10;;
13067;SDS011;6600;51.362;6.686;2023-02-22T04:40:09;9.17;;;4.57;;
13067;SDS011;6600;51.362;6.686;2023-02-22T04:42:35;9.17;;;3.80;;
13067;SDS011;6600;51.362;6.686;2023-02-22T04:45:02;6.93;;;3.80;;
13067;SDS011;6600;51.362;6.686;2023-02-22T04:47:29;8.30;;;3.93;;
13067;SDS011;6600;51.362;6.686;2023-02-22T04:49:54;8.77;;;4.00;;
13067;SDS011;6600;51.362;6.686;2023-02-22T04:52:20;6.70;;;4.97;;
13067;SDS011;6600;51.362;6.686;2023-02-22T04:54:45;6.57;;;3.00;;
13067;SDS011;6600;51.362;6.686;2023-02-22T04:57:11;8.50;;;4.63;;
13067;SDS011;6600;51.362;6.686;2023-02-22T04:59:36;8.27;;;4.27;;
13067;SDS011;6600;51.362;6.686;2023-02-22T05:02:01;8.77;;;4.47;;
13067;SDS011;6600;51.362;6.686;2023-02-22T05:04:27;9.20;;;5.17;;
13067;SDS011;6600;51.362;6.686;2023-02-22T05:06:52;8.83;;;5.07;;
13067;SDS011;6600;51.362;6.686;2023-02-22T05:09:17;11.03;;;5.23;;
13067;SDS011;6600;51.362;6.686;2023-02-22T05:11:43;7.93;;;3.83;;
13067;SDS011;6600;51.362;6.686;2023-02-22T05:14:08;11.00;;;4.63;;
13067;SDS011;6600;51.362;6.686;2023-02-22T05:16:34;9.47;;;4.43;;
13067;SDS011;6600;51.362;6.686;2023-02-22T05:18:59;9.20;;;4.37;;
13067;SDS011;6600;51.362;6.686;2023-02-22T05:21:25;8.00;;;4.27;;
13067;SDS011;6600;51.362;6.686;2023-02-22T05:23:50;11.73;;;5.13;;
13067;SDS011;6600;51.362;6.686;2023-02-22T05:26:16;12.10;;;4.87;;
13067;SDS011;6600;51.362;6.686;2023-02-22T05:28:41;13.67;;;5.30;;
13067;SDS011;6600;51.362;6.686;2023-02-22T05:31:06;16.83;;;5.57;;
13067;SDS011;6600;51.362;6.686;2023-02-22T05:33:32;11.17;;;6.27;;
13067;SDS011;6600;51.362;6.686;2023-02-22T05:35:57;6.83;;;3.83;;
13067;SDS011;6600;51.362;6.686;2023-02-22T05:38:23;23.43;;;6.73;;
13067;SDS011;6600;51.362;6.686;2023-02-22T05:40:49;14.27;;;5.80;;
13067;SDS011;6600;51.362;6.686;2023-02-22T05:43:14;14.13;;;4.73;;
13067;SDS011;6600;51.362;6.686;2023-02-22T05:45:40;19.60;;;5.70;;
13067;SDS011;6600;51.362;6.686;2023-02-22T05:48:06;14.77;;;5.83;;
13067;SDS011;6600;51.362;6.686;2023-02-22T05:50:32;8.57;;;4.67;;
13067;SDS011;6600;51.362;6.686;2023-02-22T05:52:57;9.37;;;4.37;;
13067;SDS011;6600;51.362;6.686;2023-02-22T05:55:23;13.20;;;5.47;;
13067;SDS011;6600;51.362;6.686;2023-02-22T05:57:49;9.77;;;3.77;;
13067;SDS011;6600;51.362;6.686;2023-02-22T06:00:17;10.27;;;6.10;;
13067;SDS011;6600;51.362;6.686;2023-02-22T06:03:01;12.23;;;5.27;;
13067;SDS011;6600;51.362;6.686;2023-02-22T06:05:29;16.80;;;5.90;;
13067;SDS011;6600;51.362;6.686;2023-02-22T06:07:55;16.70;;;7.37;;
13067;SDS011;6600;51.362;6.686;2023-02-22T06:10:22;10.83;;;4.73;;
13067;SDS011;6600;51.362;6.686;2023-02-22T06:12:48;11.57;;;5.27;;
13067;SDS011;6600;51.362;6.686;2023-02-22T06:15:14;13.93;;;5.70;;
13067;SDS011;6600;51.362;6.686;2023-02-22T06:17:41;10.20;;;4.17;;
13067;SDS011;6600;51.362;6.686;2023-02-22T06:20:08;18.27;;;6.70;;
13067;SDS011;6600;51.362;6.686;2023-02-22T06:22:34;13.23;;;5.90;;
13067;SDS011;6600;51.362;6.686;2023-02-22T06:25:01;14.00;;;6.77;;
13067;SDS011;6600;51.362;6.686;2023-02-22T06:27:29;11.47;;;5.37;;
13067;SDS011;6600;51.362;6.686;2023-02-22T06:29:56;13.83;;;4.97;;
13067;SDS011;6600;51.362;6.686;2023-02-22T06:32:22;15.23;;;7.13;;
13067;SDS011;6600;51.362;6.686;2023-02-22T06:34:47;12.43;;;5.53;;
13067;SDS011;6600;51.362;6.686;2023-02-22T06:37:13;14.20;;;6.27;;
13067;SDS011;6600;51.362;6.686;2023-02-22T06:39:38;10.97;;;4.87;;
13067;SDS011;6600;51.362;6.686;2023-02-22T06:42:03;11.33;;;4.50;;
13067;SDS011;6600;51.362;6.686;2023-02-22T06:44:29;10.77;;;5.63;;
13067;SDS011;6600;51.362;6.686;2023-02-22T06:46:54;11.70;;;5.03;;
13067;SDS011;6600;51.362;6.686;2023-02-22T06:49:20;12.70;;;5.07;;
13067;SDS011;6600;51.362;6.686;2023-02-22T06:51:46;9.77;;;4.57;;
13067;SDS011;6600;51.362;6.686;2023-02-22T06:54:12;13.93;;;5.33;;
13067;SDS011;6600;51.362;6.686;2023-02-22T06:56:38;8.33;;;4.50;;
13067;SDS011;6600;51.362;6.686;2023-02-22T06:59:03;11.73;;;5.40;;
13067;SDS011;6600;51.362;6.686;2023-02-22T07:01:29;7.30;;;4.20;;
13067;SDS011;6600;51.362;6.686;2023-02-22T07:03:54;16.80;;;5.30;;
13067;SDS011;6600;51.362;6.686;2023-02-22T07:06:19;11.20;;;4.90;;
13067;SDS011;6600;51.362;6.686;2023-02-22T07:08:45;12.03;;;5.90;;
13067;SDS011;6600;51.362;6.686;2023-02-22T07:11:10;8.77;;;5.03;;
13067;SDS011;6600;51.362;6.686;2023-02-22T07:13:36;12.17;;;5.27;;
13067;SDS011;6600;51.362;6.686;2023-02-22T07:16:01;11.27;;;5.37;;
13067;SDS011;6600;51.362;6.686;2023-02-22T07:18:26;12.60;;;6.17;;
13067;SDS011;6600;51.362;6.686;2023-02-22T07:20:52;8.17;;;4.60;;
13067;SDS011;6600;51.362;6.686;2023-02-22T07:23:18;10.53;;;4.77;;
13067;SDS011;6600;51.362;6.686;2023-02-22T07:25:44;8.00;;;3.53;;
13067;SDS011;6600;51.362;6.686;2023-02-22T07:28:10;9.90;;;4.27;;
13067;SDS011;6600;51.362;6.686;2023-02-22T07:30:35;9.37;;;4.50;;
13067;SDS011;6600;51.362;6.686;2023-02-22T07:33:03;11.47;;;5.27;;
13067;SDS011;6600;51.362;6.686;2023-02-22T07:35:30;11.17;;;6.40;;
13067;SDS011;6600;51.362;6.686;2023-02-22T07:38:00;7.80;;;4.37;;
13067;SDS011;6600;51.362;6.686;2023-02-22T07:40:26;7.77;;;4.47;;
13067;SDS011;6600;51.362;6.686;2023-02-22T07:45:25;9.77;;;4.17;;
13067;SDS011;6600;51.362;6.686;2023-02-22T07:47:52;9.63;;;5.50;;
13067;SDS011;6600;51.362;6.686;2023-02-22T07:50:18;15.73;;;4.57;;
13067;SDS011;6600;51.362;6.686;2023-02-22T07:52:45;9.87;;;6.00;;
13067;SDS011;6600;51.362;6.686;2023-02-22T07:55:13;7.87;;;4.63;;
13067;SDS011;6600;51.362;6.686;2023-02-22T07:57:40;14.37;;;5.47;;
13067;SDS011;6600;51.362;6.686;2023-02-22T08:00:07;15.40;;;4.80;;
13067;SDS011;6600;51.362;6.686;2023-02-22T08:02:33;12.73;;;6.43;;
13067;SDS011;6600;51.362;6.686;2023-02-22T08:04:58;9.17;;;4.70;;
13067;SDS011;6600;51.362;6.686;2023-02-22T08:07:23;11.17;;;5.60;;
13067;SDS011;6600;51.362;6.686;2023-02-22T08:09:49;9.27;;;5.70;;
13067;SDS011;6600;51.362;6.686;2023-02-22T08:12:14;14.17;;;5.60;;
13067;SDS011;6600;51.362;6.686;2023-02-22T08:14:40;13.83;;;5.37;;
13067;SDS011;6600;51.362;6.686;2023-02-22T08:17:05;10.80;;;5.77;;
13067;SDS011;6600;51.362;6.686;2023-02-22T08:19:31;12.33;;;5.77;;
13067;SDS011;6600;51.362;6.686;2023-02-22T08:21:56;10.07;;;5.97;;
13067;SDS011;6600;51.362;6.686;2023-02-22T08:24:21;13.50;;;7.97;;
13067;SDS011;6600;51.362;6.686;2023-02-22T08:26:47;12.90;;;6.43;;
13067;SDS011;6600;51.362;6.686;2023-02-22T08:29:12;12.13;;;6.50;;
13067;SDS011;6600;51.362;6.686;2023-02-22T08:31:38;12.33;;;7.13;;
13067;SDS011;6600;51.362;6.686;2023-02-22T08:34:04;15.40;;;6.60;;
13067;SDS011;6600;51.362;6.686;2023-02-22T08:36:30;9.53;;;6.37;;
13067;SDS011;6600;51.362;6.686;2023-02-22T08:38:57;9.77;;;5.13;;
13067;SDS011;6600;51.362;6.686;2023-02-22T08:41:22;11.93;;;6.60;;
13067;SDS011;6600;51.362;6.686;2023-02-22T08:43:48;10.87;;;5.87;;
13067;SDS011;6600;51.362;6.686;2023-02-22T08:46:15;8.70;;;5.10;;
13067;SDS011;6600;51.362;6.686;2023-02-22T08:48:50;10.27;;;5.27;;
13067;SDS011;6600;51.362;6.686;2023-02-22T08:51:16;7.00;;;4.80;;
13067;SDS011;6600;51.362;6.686;2023-02-22T08:53:42;15.00;;;5.33;;
13067;SDS011;6600;51.362;6.686;2023-02-22T08:56:08;8.30;;;5.23;;
13067;SDS011;6600;51.362;6.686;2023-02-22T08:58:33;7.63;;;4.30;;
13067;SDS011;6600;51.362;6.686;2023-02-22T09:00:59;9.27;;;4.20;;
13067;SDS011;6600;51.362;6.686;2023-02-22T09:03:24;8.33;;;5.43;;
13067;SDS011;6600;51.362;6.686;2023-02-22T09:05:49;8.27;;;5.07;;
13067;SDS011;6600;51.362;6.686;2023-02-22T09:08:15;7.20;;;3.97;;
13067;SDS011;6600;51.362;6.686;2023-02-22T09:10:41;8.10;;;4.43;;
13067;SDS011;6600;51.362;6.686;2023-02-22T09:13:07;9.50;;;5.57;;
13067;SDS011;6600;51.362;6.686;2023-02-22T09:15:33;8.67;;;5.27;;
13067;SDS011;6600;51.362;6.686;2023-02-22T09:18:01;8.93;;;4.80;;
13067;SDS011;6600;51.362;6.686;2023-02-22T09:20:28;10.87;;;4.57;;
13067;SDS011;6600;51.362;6.686;2023-02-22T09:22:55;7.57;;;5.00;;
13067;SDS011;6600;51.362;6.686;2023-02-22T09:25:21;6.80;;;4.40;;
13067;SDS011;6600;51.362;6.686;2023-02-22T09:27:50;10.03;;;5.20;;
13067;SDS011;6600;51.362;6.686;2023-02-22T09:30:19;7.23;;;4.23;;
13067;SDS011;6600;51.362;6.686;2023-02-22T09:32:53;7.27;;;4.23;;
13067;SDS011;6600;51.362;6.686;2023-02-22T09:35:21;8.97;;;4.00;;
13067;SDS011;6600;51.362;6.686;2023-02-22T09:37:51;8.23;;;4.73;;
13067;SDS011;6600;51.362;6.686;2023-02-22T09:40:20;9.87;;;4.97;;
13067;SDS011;6600;51.362;6.686;2023-02-22T09:42:55;11.07;;;5.67;;
13067;SDS011;6600;51.362;6.686;2023-02-22T09:45:50;9.00;;;4.50;;
13067;SDS011;6600;51.362;6.686;2023-02-22T09:48:22;5.43;;;3.87;;
13067;SDS011;6600;51.362;6.686;2023-02-22T09:50:50;9.30;;;4.83;;
13067;SDS011;6600;51.362;6.686;2023-02-22T09:56:07;6.50;;;4.07;;
13067;SDS011;6600;51.362;6.686;2023-02-22T09:58:54;7.03;;;4.47;;
13067;SDS011;6600;51.362;6.686;2023-02-22T10:01:25;6.00;;;4.00;;
13067;SDS011;6600;51.362;6.686;2023-02-22T10:06:49;5.40;;;4.07;;
13067;SDS011;6600;51.362;6.686;2023-02-22T10:09:21;7.60;;;4.40;;
13067;SDS011;6600;51.362;6.686;2023-02-22T10:11:55;5.90;;;4.20;;
13067;SDS011;6600;51.362;6.686;2023-02-22T10:19:44;6.47;;;4.37;;
13067;SDS011;6600;51.362;6.686;2023-02-22T10:25:07;9.57;;;4.63;;
13067;SDS011;6600;51.362;6.686;2023-02-22T10:27:43;6.73;;;3.53;;
13067;SDS011;6600;51.362;6.686;2023-02-22T10:30:21;9.70;;;4.73;;
13067;SDS011;6600;51.362;6.686;2023-02-22T10:33:18;10.10;;;4.47;;
13067;SDS011;6600;51.362;6.686;2023-02-22T10:35:45;10.83;;;4.73;;
13067;SDS011;6600;51.362;6.686;2023-02-22T10:38:22;7.97;;;5.10;;
13067;SDS011;6600;51.362;6.686;2023-02-22T10:40:55;6.73;;;4.03;;
13067;SDS011;6600;51.362;6.686;2023-02-22T10:43:22;10.07;;;4.67;;
13067;SDS011;6600;51.362;6.686;2023-02-22T10:45:49;6.17;;;4.53;;
13067;SDS011;6600;51.362;6.686;2023-02-22T10:48:18;11.40;;;5.57;;
13067;SDS011;6600;51.362;6.686;2023-02-22T10:50:45;7.47;;;4.80;;
13067;SDS011;6600;51.362;6.686;2023-02-22T10:53:11;5.47;;;3.60;;
13067;SDS011;6600;51.362;6.686;2023-02-22T10:58:49;5.30;;;4.27;;
13067;SDS011;6600;51.362;6.686;2023-02-22T11:01:20;9.53;;;4.23;;
13067;SDS011;6600;51.362;6.686;2023-02-22T11:03:55;7.03;;;4.07;;
13067;SDS011;6600;51.362;6.686;2023-02-22T11:06:22;7.50;;;4.47;;
13067;SDS011;6600;51.362;6.686;2023-02-22T11:08:48;7.30;;;4.07;;
13067;SDS011;6600;51.362;6.686;2023-02-22T11:11:23;6.23;;;4.00;;
13067;SDS011;6600;51.362;6.686;2023-02-22T11:13:56;7.50;;;4.13;;
13067;SDS011;6600;51.362;6.686;2023-02-22T11:16:27;6.40;;;3.90;;
13067;SDS011;6600;51.362;6.686;2023-02-22T11:21:40;5.33;;;3.37;;
13067;SDS011;6600;51.362;6.686;2023-02-22T11:24:07;8.77;;;4.53;;
13067;SDS011;6600;51.362;6.686;2023-02-22T11:29:19;6.40;;;3.83;;
13067;SDS011;6600;51.362;6.686;2023-02-22T11:31:46;5.87;;;4.10;;
13067;SDS011;6600;51.362;6.686;2023-02-22T11:34:37;5.63;;;4.03;;
13067;SDS011;6600;51.362;6.686;2023-02-22T11:43:14;5.00;;;3.33;;
13067;SDS011;6600;51.362;6.686;2023-02-22T11:49:31;6.43;;;3.17;;
13067;SDS011;6600;51.362;6.686;2023-02-22T11:51:37;4.63;;;3.17;;
13067;SDS011;6600;51.362;6.686;2023-02-22T11:56:52;5.03;;;3.37;;
13067;SDS011;6600;51.362;6.686;2023-02-22T12:05:26;7.73;;;3.47;;
13067;SDS011;6600;51.362;6.686;2023-02-22T12:13:24;6.47;;;3.57;;
13067;SDS011;6600;51.362;6.686;2023-02-22T12:16:10;5.87;;;3.47;;
13067;SDS011;6600;51.362;6.686;2023-02-22T12:21:29;6.90;;;4.47;;
13067;SDS011;6600;51.362;6.686;2023-02-22T12:24:09;4.93;;;3.37;;
13067;SDS011;6600;51.362;6.686;2023-02-22T12:26:41;6.97;;;3.53;;
13067;SDS011;6600;51.362;6.686;2023-02-22T12:29:20;6.87;;;3.57;;
13067;SDS011;6600;51.362;6.686;2023-02-22T12:34:36;5.47;;;3.67;;
13067;SDS011;6600;51.362;6.686;2023-02-22T12:42:20;5.90;;;3.80;;
13067;SDS011;6600;51.362;6.686;2023-02-22T12:45:07;5.30;;;3.73;;
13067;SDS011;6600;51.362;6.686;2023-02-22T12:47:42;7.03;;;4.13;;
13067;SDS011;6600;51.362;6.686;2023-02-22T12:50:20;6.40;;;4.00;;
13067;SDS011;6600;51.362;6.686;2023-02-22T12:53:13;7.03;;;3.87;;
13067;SDS011;6600;51.362;6.686;2023-02-22T12:55:39;7.00;;;4.60;;
13067;SDS011;6600;51.362;6.686;2023-02-22T13:01:24;5.23;;;4.03;;
13067;SDS011;6600;51.362;6.686;2023-02-22T13:03:56;9.40;;;3.97;;
13067;SDS011;6600;51.362;6.686;2023-02-22T13:12:09;6.40;;;4.27;;
13067;SDS011;6600;51.362;6.686;2023-02-22T13:17:46;8.50;;;3.97;;
13067;SDS011;6600;51.362;6.686;2023-02-22T13:20:22;8.00;;;4.20;;
13067;SDS011;6600;51.362;6.686;2023-02-22T13:22:57;7.23;;;3.90;;
13067;SDS011;6600;51.362;6.686;2023-02-22T13:30:38;6.93;;;4.13;;
13067;SDS011;6600;51.362;6.686;2023-02-22T13:41:13;5.93;;;3.10;;
13067;SDS011;6600;51.362;6.686;2023-02-22T13:52:17;6.57;;;3.37;;
13067;SDS011;6600;51.362;6.686;2023-02-22T13:54:48;3.77;;;2.87;;
13067;SDS011;6600;51.362;6.686;2023-02-22T14:08:04;3.73;;;2.80;;
13067;SDS011;6600;51.362;6.686;2023-02-22T14:10:49;3.93;;;2.93;;
13067;SDS011;6600;51.362;6.686;2023-02-22T14:13:26;8.27;;;3.37;;
13067;SDS011;6600;51.362;6.686;2023-02-22T14:18:23;5.43;;;3.33;;
13067;SDS011;6600;51.362;6.686;2023-02-22T14:28:53;4.30;;;3.13;;
13067;SDS011;6600;51.362;6.686;2023-02-22T14:31:20;6.67;;;4.57;;
13067;SDS011;6600;51.362;6.686;2023-02-22T14:36:19;5.40;;;3.00;;
13067;SDS011;6600;51.362;6.686;2023-02-22T14:38:48;6.87;;;3.37;;
13067;SDS011;6600;51.362;6.686;2023-02-22T14:41:18;4.17;;;3.47;;
13067;SDS011;6600;51.362;6.686;2023-02-22T14:43:50;5.07;;;3.00;;
13067;SDS011;6600;51.362;6.686;2023-02-22T14:46:18;5.33;;;3.60;;
13067;SDS011;6600;51.362;6.686;2023-02-22T14:48:48;4.53;;;3.10;;
13067;SDS011;6600;51.362;6.686;2023-02-22T14:51:21;6.90;;;3.23;;
13067;SDS011;6600;51.362;6.686;2023-02-22T14:54:00;5.67;;;3.37;;
13067;SDS011;6600;51.362;6.686;2023-02-22T14:56:36;5.43;;;3.77;;
13067;SDS011;6600;51.362;6.686;2023-02-22T15:01:44;4.47;;;3.00;;
13067;SDS011;6600;51.362;6.686;2023-02-22T15:04:19;4.00;;;3.50;;
13067;SDS011;6600;51.362;6.686;2023-02-22T15:06:50;5.50;;;3.43;;
13067;SDS011;6600;51.362;6.686;2023-02-22T15:09:19;4.40;;;3.30;;
13067;SDS011;6600;51.362;6.686;2023-02-22T15:14:26;4.93;;;3.10;;
13067;SDS011;6600;51.362;6.686;2023-02-22T15:17:00;6.10;;;3.23;;
13067;SDS011;6600;51.362;6.686;2023-02-22T15:19:31;6.47;;;3.93;;
13067;SDS011;6600;51.362;6.686;2023-02-22T15:21:59;4.77;;;3.33;;
13067;SDS011;6600;51.362;6.686;2023-02-22T15:24:29;4.73;;;3.40;;
13067;SDS011;6600;51.362;6.686;2023-02-22T15:27:11;4.57;;;3.33;;
13067;SDS011;6600;51.362;6.686;2023-02-22T15:29:40;5.77;;;3.70;;
13067;SDS011;6600;51.362;6.686;2023-02-22T15:35:11;5.93;;;3.73;;
13067;SDS011;6600;51.362;6.686;2023-02-22T15:37:42;7.40;;;3.87;;
13067;SDS011;6600;51.362;6.686;2023-02-22T15:40:16;5.10;;;3.80;;
13067;SDS011;6600;51.362;6.686;2023-02-22T15:42:51;6.00;;;3.83;;
13067;SDS011;6600;51.362;6.686;2023-02-22T15:45:21;8.33;;;4.40;;
13067;SDS011;6600;51.362;6.686;2023-02-22T15:47:49;5.57;;;3.77;;
13067;SDS011;6600;51.362;6.686;2023-02-22T15:50:29;5.93;;;3.97;;
13067;SDS011;6600;51.362;6.686;2023-02-22T15:55:44;6.20;;;3.93;;
13067;SDS011;6600;51.362;6.686;2023-02-22T16:00:39;7.87;;;4.10;;
13067;SDS011;6600;51.362;6.686;2023-02-22T16:03:08;6.50;;;3.57;;
13067;SDS011;6600;51.362;6.686;2023-02-22T16:05:43;9.00;;;3.70;;
13067;SDS011;6600;51.362;6.686;2023-02-22T16:08:24;7.53;;;4.50;;
13067;SDS011;6600;51.362;6.686;2023-02-22T16:10:59;7.17;;;4.37;;
13067;SDS011;6600;51.362;6.686;2023-02-22T16:13:30;6.17;;;4.23;;
13067;SDS011;6600;51.362;6.686;2023-02-22T16:16:04;7.63;;;3.97;;
13067;SDS011;6600;51.362;6.686;2023-02-22T16:18:46;3.90;;;3.50;;
13067;SDS011;6600;51.362;6.686;2023-02-22T16:21:13;6.50;;;4.33;;
13067;SDS011;6600;51.362;6.686;2023-02-22T16:28:50;5.27;;;4.10;;
13067;SDS011;6600;51.362;6.686;2023-02-22T16:31:20;6.20;;;4.40;;
13067;SDS011;6600;51.362;6.686;2023-02-22T16:33:47;5.70;;;4.50;;
13067;SDS011;6600;51.362;6.686;2023-02-22T16:36:14;5.97;;;4.17;;
13067;SDS011;6600;51.362;6.686;2023-02-22T16:38:40;6.90;;;4.77;;
13067;SDS011;6600;51.362;6.686;2023-02-22T16:41:08;9.77;;;4.97;;
13067;SDS011;6600;51.362;6.686;2023-02-22T16:43:34;5.63;;;4.10;;
13067;SDS011;6600;51.362;6.686;2023-02-22T16:46:00;6.90;;;4.23;;
13067;SDS011;6600;51.362;6.686;2023-02-22T16:48:27;7.53;;;4.53;;
13067;SDS011;6600;51.362;6.686;2023-02-22T16:50:55;9.33;;;4.37;;
13067;SDS011;6600;51.362;6.686;2023-02-22T16:53:25;7.43;;;4.90;;
13067;SDS011;6600;51.362;6.686;2023-02-22T16:55:53;6.83;;;3.83;;
13067;SDS011;6600;51.362;6.686;2023-02-22T16:58:24;7.67;;;4.67;;
13067;SDS011;6600;51.362;6.686;2023-02-22T17:00:52;6.40;;;4.50;;
13067;SDS011;6600;51.362;6.686;2023-02-22T17:03:18;6.20;;;5.30;;
13067;SDS011;6600;51.362;6.686;2023-02-22T17:05:44;7.07;;;4.90;;
13067;SDS011;6600;51.362;6.686;2023-02-22T17:08:10;7.77;;;4.27;;
13067;SDS011;6600;51.362;6.686;2023-02-22T17:10:35;7.67;;;4.57;;
13067;SDS011;6600;51.362;6.686;2023-02-22T17:13:01;9.03;;;4.97;;
13067;SDS011;6600;51.362;6.686;2023-02-22T17:15:28;6.27;;;4.30;;
13067;SDS011;6600;51.362;6.686;2023-02-22T17:17:59;6.07;;;4.33;;
13067;SDS011;6600;51.362;6.686;2023-02-22T17:20:28;8.37;;;4.43;;
13067;SDS011;6600;51.362;6.686;2023-02-22T17:23:03;4.80;;;3.43;;
13067;SDS011;6600;51.362;6.686;2023-02-22T17:25:33;10.17;;;4.60;;
13067;SDS011;6600;51.362;6.686;2023-02-22T17:28:02;5.77;;;4.50;;
13067;SDS011;6600;51.362;6.686;2023-02-22T17:30:28;6.60;;;3.60;;
13067;SDS011;6600;51.362;6.686;2023-02-22T17:32:55;7.23;;;4.40;;
13067;SDS011;6600;51.362;6.686;2023-02-22T17:35:28;7.37;;;4.40;;
13067;SDS011;6600;51.362;6.686;2023-02-22T17:37:55;8.50;;;4.63;;
13067;SDS011;6600;51.362;6.686;2023-02-22T17:40:21;8.07;;;4.63;;
13067;SDS011;6600;51.362;6.686;2023-02-22T17:42:47;7.53;;;5.03;;
13067;SDS011;6600;51.362;6.686;2023-02-22T17:45:19;7.90;;;4.90;;
13067;SDS011;6600;51.362;6.686;2023-02-22T17:47:47;7.90;;;5.40;;
13067;SDS011;6600;51.362;6.686;2023-02-22T17:50:14;7.43;;;4.83;;
13067;SDS011;6600;51.362;6.686;2023-02-22T17:52:39;13.33;;;5.33;;
13067;SDS011;6600;51.362;6.686;2023-02-22T17:55:05;7.80;;;4.63;;
13067;SDS011;6600;51.362;6.686;2023-02-22T17:57:31;8.40;;;5.33;;
13067;SDS011;6600;51.362;6.686;2023-02-22T17:59:57;12.97;;;5.37;;
13067;SDS011;6600;51.362;6.686;2023-02-22T18:02:22;7.67;;;5.17;;